Time;durP1;ratioP1;P1;durP2;ratioP2;P2;SDS_P1;SDS_P2;PMS_P1;PMS_P2;Temp;Humidity;BMP_temperature;BMP_pressure;BME280_temperature;BME280_humidity;BME280_pressure;Samples;Min_cycle;Max_cycle;Signal;HPM_P1;HPM_P2
2023/07/15 00:00:50;;;;;;;;;;;23.10;47.70;;;;;;4986839;28;20004;-89
2023/07/15 00:03:17;;;;;;;;;;;23.10;48.90;;;;;;4973112;28;20418;-89
2023/07/15 00:05:42;;;;;;;;;;;23.10;48.00;;;;;;4971175;28;19918;-89
2023/07/15 00:08:08;;;;;;;;;;;23.10;48.00;;;;;;4973194;28;20423;-89
2023/07/15 00:10:34;;;;;;;;;;;23.10;49.70;;;;;;4970519;28;19949;-89
2023/07/15 00:13:00;;;;;;;;;;;23.00;48.80;;;;;;4972980;28;19935;-89
2023/07/15 00:15:25;;;;;;;;;;;23.10;49.10;;;;;;4988727;28;19921;-89
2023/07/15 00:17:51;;;;;;;;;;;23.00;48.60;;;;;;4972903;28;20008;-89
2023/07/15 00:20:19;;;;;;;;;;;23.00;49.50;;;;;;4971604;28;20371;-89
2023/07/15 00:22:45;;;;;;;;;;;22.90;49.00;;;;;;4989203;28;20334;-90
2023/07/15 00:25:15;;;;;;;;;;;22.90;49.10;;;;;;4989848;28;19913;-89
2023/07/15 00:27:41;;;;;;;;;;;23.10;48.60;;;;;;4976043;28;19914;-89
2023/07/15 00:30:08;;;;;;;;;;;23.10;48.10;;;;;;4993967;28;19902;-89
2023/07/15 00:32:33;;;;;;;;;;;23.20;48.60;;;;;;5009861;28;20410;-89
2023/07/15 00:34:58;;;;;;;;;;;23.20;47.70;;;;;;4992712;28;19918;-88
2023/07/15 00:37:24;;;;;;;;;;;23.20;48.90;;;;;;4974214;28;19918;-89
2023/07/15 00:39:49;;;;;;;;;;;23.30;47.80;;;;;;4990552;28;19914;-88
2023/07/15 00:42:18;;;;;;;;;;;23.30;48.20;;;;;;4972836;28;20003;-89
2023/07/15 00:44:44;;;;;;;;;;;23.30;47.50;;;;;;4953926;28;20501;-89
2023/07/15 00:47:27;;;;;;;;;;;23.30;47.70;;;;;;4972962;28;19941;-89
2023/07/15 00:49:53;;;;;;;;;;;23.30;48.00;;;;;;4989435;28;19910;-89
2023/07/15 00:52:20;;;;;;;;;;;23.20;48.30;;;;;;4988451;28;20025;-89
2023/07/15 00:54:48;;;;;;;;;;;23.20;47.80;;;;;;4971854;28;19914;-89
2023/07/15 00:57:16;;;;;;;;;;;23.20;48.50;;;;;;4973065;28;19917;-89
2023/07/15 00:59:42;;;;;;;;;;;23.10;48.30;;;;;;4972594;28;19914;-88
2023/07/15 01:02:09;;;;;;;;;;;23.20;48.10;;;;;;4971836;28;20325;-88
2023/07/15 01:04:34;;;;;;;;;;;23.20;47.90;;;;;;4974578;28;19997;-89
2023/07/15 01:07:00;;;;;;;;;;;23.10;48.30;;;;;;4973450;28;20354;-89
2023/07/15 01:09:26;;;;;;;;;;;23.10;48.60;;;;;;4972314;28;19910;-89
2023/07/15 01:11:51;;;;;;;;;;;23.00;49.10;;;;;;4971755;28;20089;-89
2023/07/15 01:14:17;;;;;;;;;;;22.90;49.00;;;;;;4970939;28;20455;-89
2023/07/15 01:16:42;;;;;;;;;;;22.90;50.00;;;;;;4989717;28;19914;-88
2023/07/15 01:19:08;;;;;;;;;;;23.00;48.50;;;;;;4972187;28;19921;-89
2023/07/15 01:21:36;;;;;;;;;;;23.00;48.80;;;;;;4989939;28;19917;-89
2023/07/15 01:24:02;;;;;;;;;;;23.10;48.50;;;;;;4987760;28;19918;-88
2023/07/15 01:26:28;;;;;;;;;;;23.00;48.70;;;;;;4989483;28;19941;-89
2023/07/15 01:28:54;;;;;;;;;;;22.90;49.70;;;;;;4970712;28;19925;-89
2023/07/15 01:31:19;;;;;;;;;;;23.00;48.40;;;;;;4972364;28;19918;-89
2023/07/15 01:33:45;;;;;;;;;;;22.90;49.70;;;;;;4971106;28;20438;-89
2023/07/15 01:36:11;;;;;;;;;;;22.80;50.10;;;;;;4988777;28;19936;-89
2023/07/15 01:38:37;;;;;;;;;;;22.90;49.80;;;;;;4988782;28;19917;-88
2023/07/15 01:41:03;;;;;;;;;;;22.80;50.50;;;;;;4972021;28;20383;-89
2023/07/15 01:43:28;;;;;;;;;;;22.80;49.40;;;;;;4988773;28;19913;-89
2023/07/15 01:45:54;;;;;;;;;;;22.70;50.40;;;;;;4988674;28;19914;-89
2023/07/15 01:48:19;;;;;;;;;;;22.80;50.10;;;;;;4971534;28;19910;-89
2023/07/15 01:50:46;;;;;;;;;;;22.70;51.70;;;;;;4970642;28;19918;-89
2023/07/15 01:53:12;;;;;;;;;;;22.80;49.50;;;;;;4975598;28;19918;-88
2023/07/15 01:55:37;;;;;;;;;;;22.60;51.10;;;;;;5012300;28;19906;-88
2023/07/15 01:58:02;;;;;;;;;;;22.50;50.90;;;;;;5001980;28;19952;-89
2023/07/15 02:00:29;;;;;;;;;;;22.50;51.10;;;;;;4989806;28;19917;-89
2023/07/15 02:02:54;;;;;;;;;;;22.60;50.70;;;;;;4988793;28;19920;-89
2023/07/15 02:05:20;;;;;;;;;;;22.50;50.90;;;;;;4972000;28;20390;-89
2023/07/15 02:07:45;;;;;;;;;;;22.50;50.90;;;;;;4971908;28;19971;-90
2023/07/15 02:10:11;;;;;;;;;;;22.60;51.00;;;;;;4975639;28;19910;-89
2023/07/15 02:12:36;;;;;;;;;;;22.50;50.50;;;;;;4973959;28;19920;-89
2023/07/15 02:15:03;;;;;;;;;;;22.50;51.60;;;;;;4974243;28;19992;-89
2023/07/15 02:17:28;;;;;;;;;;;22.50;51.50;;;;;;4974287;28;19976;-89
2023/07/15 02:19:59;;;;;;;;;;;22.50;51.20;;;;;;4974152;28;19953;-89
2023/07/15 02:22:25;;;;;;;;;;;22.40;51.30;;;;;;4972684;28;19921;-89
2023/07/15 02:24:51;;;;;;;;;;;22.40;51.30;;;;;;4974194;28;19984;-89
2023/07/15 02:27:16;;;;;;;;;;;22.50;50.70;;;;;;4992762;28;19918;-89
2023/07/15 02:29:45;;;;;;;;;;;22.50;51.10;;;;;;4974236;28;19918;-89
2023/07/15 02:32:14;;;;;;;;;;;22.60;50.00;;;;;;4974904;28;19924;-89
2023/07/15 02:34:39;;;;;;;;;;;22.60;50.70;;;;;;4974386;28;19914;-91
2023/07/15 02:37:05;;;;;;;;;;;22.70;50.10;;;;;;4978663;28;19918;-89
2023/07/15 02:39:33;;;;;;;;;;;22.70;50.80;;;;;;4976580;28;20367;-91
2023/07/15 02:41:59;;;;;;;;;;;22.70;50.30;;;;;;4973895;28;20400;-90
2023/07/15 02:44:24;;;;;;;;;;;22.60;51.60;;;;;;4970755;28;19918;-90
2023/07/15 02:46:49;;;;;;;;;;;22.50;51.70;;;;;;4986508;28;20265;-91
2023/07/15 02:49:15;;;;;;;;;;;22.40;51.50;;;;;;5018260;28;20013;-90
2023/07/15 02:51:41;;;;;;;;;;;22.50;51.90;;;;;;4976253;28;19916;-90
2023/07/15 02:54:06;;;;;;;;;;;22.50;50.60;;;;;;4976147;28;19949;-91
2023/07/15 02:56:33;;;;;;;;;;;22.60;50.40;;;;;;4974372;28;19928;-91
2023/07/15 02:58:58;;;;;;;;;;;22.50;51.30;;;;;;4970679;28;19945;-91
2023/07/15 03:01:23;;;;;;;;;;;22.50;51.00;;;;;;5008936;28;19908;-91
2023/07/15 03:03:49;;;;;;;;;;;22.40;51.80;;;;;;4986049;28;19929;-91
2023/07/15 03:06:14;;;;;;;;;;;22.50;50.10;;;;;;4992107;28;19977;-91
2023/07/15 03:08:40;;;;;;;;;;;22.50;51.00;;;;;;4976156;28;19910;-91
2023/07/15 03:11:06;;;;;;;;;;;22.50;50.30;;;;;;4976659;28;20043;-91
2023/07/15 03:13:31;;;;;;;;;;;22.50;51.60;;;;;;4974780;28;19988;-92
2023/07/15 03:15:57;;;;;;;;;;;22.40;50.80;;;;;;5004841;28;19922;-91
2023/07/15 03:18:25;;;;;;;;;;;22.40;50.60;;;;;;5039796;28;20397;-91
2023/07/15 03:20:50;;;;;;;;;;;22.40;50.70;;;;;;4999120;28;19940;-93
2023/07/15 03:23:16;;;;;;;;;;;22.40;51.50;;;;;;4980867;28;19910;-91
2023/07/15 03:25:41;;;;;;;;;;;22.30;51.20;;;;;;4983492;28;19910;-91
2023/07/15 03:28:07;;;;;;;;;;;22.30;51.60;;;;;;4977663;28;19993;-92
2023/07/15 03:30:32;;;;;;;;;;;22.30;52.00;;;;;;4976941;28;20306;-91
2023/07/15 03:32:58;;;;;;;;;;;22.20;52.90;;;;;;4975454;28;20287;-91
2023/07/15 03:35:23;;;;;;;;;;;22.20;51.30;;;;;;4976542;28;19977;-91
2023/07/15 03:37:49;;;;;;;;;;;22.30;51.10;;;;;;4984714;28;20020;-92
2023/07/15 03:40:15;;;;;;;;;;;22.30;52.50;;;;;;4975316;28;19910;-91
2023/07/15 03:42:41;;;;;;;;;;;22.20;52.60;;;;;;4975480;28;19913;-91
2023/07/15 03:45:06;;;;;;;;;;;22.10;52.00;;;;;;4992849;28;19909;-91
2023/07/15 03:47:34;;;;;;;;;;;22.20;51.40;;;;;;4975570;28;19967;-91
2023/07/15 03:50:00;;;;;;;;;;;22.20;51.20;;;;;;4975189;28;19920;-91
2023/07/15 03:52:26;;;;;;;;;;;22.10;52.70;;;;;;4976207;28;19924;-91
2023/07/15 03:54:51;;;;;;;;;;;22.20;52.00;;;;;;4975898;28;19914;-91
2023/07/15 03:57:17;;;;;;;;;;;22.10;53.50;;;;;;4976456;28;19914;-91
2023/07/15 03:59:42;;;;;;;;;;;22.10;53.60;;;;;;4974022;28;19956;-91
2023/07/15 04:02:08;;;;;;;;;;;22.10;53.70;;;;;;4975357;28;19917;-90
2023/07/15 04:04:33;;;;;;;;;;;22.10;51.90;;;;;;4975333;28;19914;-91
2023/07/15 04:06:59;;;;;;;;;;;22.10;52.00;;;;;;4978800;28;20005;-90
2023/07/15 04:09:25;;;;;;;;;;;22.10;51.80;;;;;;4987860;28;19914;-91
2023/07/15 04:11:51;;;;;;;;;;;22.10;52.70;;;;;;4981747;28;19955;-91
2023/07/15 04:14:16;;;;;;;;;;;22.10;53.50;;;;;;4975137;28;19914;-91
2023/07/15 04:16:42;;;;;;;;;;;22.10;52.50;;;;;;4975985;28;19918;-90
2023/07/15 04:19:08;;;;;;;;;;;22.10;52.30;;;;;;4975443;28;19945;-90
2023/07/15 04:21:33;;;;;;;;;;;22.10;53.10;;;;;;4974627;28;19914;-90
2023/07/15 04:23:59;;;;;;;;;;;22.20;52.80;;;;;;4975292;28;19914;-90
2023/07/15 04:26:25;;;;;;;;;;;22.10;54.90;;;;;;4969872;28;20022;-91
2023/07/15 04:28:51;;;;;;;;;;;22.10;54.50;;;;;;4992531;28;19914;-91
2023/07/15 04:31:17;;;;;;;;;;;22.00;55.00;;;;;;4974494;28;19910;-90
2023/07/15 04:33:43;;;;;;;;;;;22.10;53.30;;;;;;4974481;28;19925;-91
2023/07/15 04:36:08;;;;;;;;;;;22.00;55.00;;;;;;4974317;28;19918;-89
2023/07/15 04:38:34;;;;;;;;;;;22.00;54.40;;;;;;4974555;28;19909;-91
2023/07/15 04:40:59;;;;;;;;;;;22.10;53.60;;;;;;4974082;28;19910;-91
2023/07/15 04:43:25;;;;;;;;;;;22.30;52.90;;;;;;4974005;28;19914;-91
2023/07/15 04:45:50;;;;;;;;;;;22.40;53.30;;;;;;4994549;28;19902;-91
2023/07/15 04:48:16;;;;;;;;;;;22.20;53.40;;;;;;4990448;28;19918;-89
2023/07/15 04:50:41;;;;;;;;;;;22.30;53.00;;;;;;4980561;28;19909;-91
2023/07/15 04:53:06;;;;;;;;;;;22.30;54.50;;;;;;4976366;28;20355;-91
2023/07/15 04:55:32;;;;;;;;;;;22.30;55.10;;;;;;4972185;28;20021;-91
2023/07/15 04:57:57;;;;;;;;;;;22.40;53.40;;;;;;4968291;28;19918;-91
2023/07/15 05:00:23;;;;;;;;;;;22.50;52.80;;;;;;4974223;28;19913;-91
2023/07/15 05:02:49;;;;;;;;;;;22.50;53.60;;;;;;4966396;28;20402;-90
2023/07/15 05:05:15;;;;;;;;;;;22.50;54.70;;;;;;4974506;28;20325;-89
2023/07/15 05:07:40;;;;;;;;;;;22.40;54.90;;;;;;4973038;28;19971;-89
2023/07/15 05:10:06;;;;;;;;;;;22.50;54.20;;;;;;4991795;28;19914;-91
2023/07/15 05:12:31;;;;;;;;;;;22.60;53.40;;;;;;4974907;28;20051;-91
2023/07/15 05:14:57;;;;;;;;;;;22.70;53.60;;;;;;4974886;28;19910;-91
2023/07/15 05:17:22;;;;;;;;;;;22.60;54.00;;;;;;4972916;28;19955;-91
2023/07/15 05:19:48;;;;;;;;;;;22.60;54.30;;;;;;4972429;28;19921;-90
2023/07/15 05:22:13;;;;;;;;;;;22.60;53.60;;;;;;4973646;28;19996;-90
2023/07/15 05:24:39;;;;;;;;;;;22.80;53.70;;;;;;4974095;28;19970;-91
2023/07/15 05:27:05;;;;;;;;;;;22.80;52.90;;;;;;4980791;28;19935;-91
2023/07/15 05:29:30;;;;;;;;;;;23.00;52.50;;;;;;4973981;28;19910;-90
2023/07/15 05:31:55;;;;;;;;;;;23.00;52.70;;;;;;4968701;28;20556;-91
2023/07/15 05:34:21;;;;;;;;;;;23.00;53.20;;;;;;4973983;28;20287;-91
2023/07/15 05:36:47;;;;;;;;;;;23.00;53.90;;;;;;4971570;28;20016;-90
2023/07/15 05:39:13;;;;;;;;;;;23.00;52.90;;;;;;4974406;28;19957;-90
2023/07/15 05:41:39;;;;;;;;;;;23.00;52.70;;;;;;4978675;28;19910;-91
2023/07/15 05:44:04;;;;;;;;;;;23.10;53.50;;;;;;4977081;28;20375;-90
2023/07/15 05:46:30;;;;;;;;;;;23.20;53.10;;;;;;5010039;28;19914;-90
2023/07/15 05:48:55;;;;;;;;;;;23.20;54.50;;;;;;4976600;28;19914;-89
2023/07/15 05:51:21;;;;;;;;;;;23.40;53.70;;;;;;4967754;28;19926;-88
2023/07/15 05:53:46;;;;;;;;;;;23.50;53.00;;;;;;4976945;28;19921;-89
2023/07/15 05:56:12;;;;;;;;;;;23.60;53.40;;;;;;4972102;28;19964;-89
2023/07/15 05:58:37;;;;;;;;;;;23.60;52.20;;;;;;4975744;28;19914;-90
2023/07/15 06:01:03;;;;;;;;;;;23.70;52.80;;;;;;4973260;28;20000;-89
2023/07/15 06:03:29;;;;;;;;;;;23.70;53.20;;;;;;4976434;28;19914;-89
2023/07/15 06:05:59;;;;;;;;;;;23.60;53.40;;;;;;4979462;28;19921;-89
2023/07/15 06:08:25;;;;;;;;;;;23.70;53.30;;;;;;4992124;28;19914;-90
2023/07/15 06:10:50;;;;;;;;;;;23.80;53.10;;;;;;4975650;28;20428;-90
2023/07/15 06:13:16;;;;;;;;;;;23.80;53.00;;;;;;4991756;28;19929;-88
2023/07/15 06:15:42;;;;;;;;;;;23.90;52.50;;;;;;4985409;28;19926;-88
2023/07/15 06:18:08;;;;;;;;;;;23.80;54.00;;;;;;4977410;28;19918;-89
2023/07/15 06:20:36;;;;;;;;;;;23.90;53.00;;;;;;4986310;28;19917;-87
2023/07/15 06:23:02;;;;;;;;;;;24.00;52.40;;;;;;4976075;28;19918;-88
2023/07/15 06:25:29;;;;;;;;;;;24.10;52.50;;;;;;4975131;28;19921;-86
2023/07/15 06:27:55;;;;;;;;;;;24.10;52.00;;;;;;4974048;28;19918;-89
2023/07/15 06:30:20;;;;;;;;;;;24.10;52.90;;;;;;4971842;28;19918;-88
2023/07/15 06:32:45;;;;;;;;;;;24.20;52.10;;;;;;4975002;28;19967;-88
2023/07/15 06:35:11;;;;;;;;;;;24.40;51.80;;;;;;4974409;28;19918;-89
2023/07/15 06:37:36;;;;;;;;;;;24.60;51.60;;;;;;4974227;28;19918;-88
2023/07/15 06:40:03;;;;;;;;;;;24.50;51.40;;;;;;4975044;28;20352;-89
2023/07/15 06:42:29;;;;;;;;;;;24.60;50.60;;;;;;4977243;28;19918;-88
2023/07/15 06:44:55;;;;;;;;;;;24.70;50.50;;;;;;4993330;28;20001;-89
2023/07/15 06:47:20;;;;;;;;;;;24.70;50.50;;;;;;4977606;28;20012;-89
2023/07/15 06:49:48;;;;;;;;;;;24.80;50.60;;;;;;4976277;28;19971;-88
2023/07/15 06:52:13;;;;;;;;;;;24.90;50.40;;;;;;4977162;28;19955;-88
2023/07/15 06:54:39;;;;;;;;;;;25.00;50.30;;;;;;4991734;28;19917;-89
2023/07/15 06:57:04;;;;;;;;;;;25.00;50.40;;;;;;4976308;28;20009;-88
2023/07/15 06:59:30;;;;;;;;;;;25.10;50.00;;;;;;4973747;28;19914;-90
2023/07/15 07:01:55;;;;;;;;;;;25.10;49.80;;;;;;4971725;28;20004;-89
2023/07/15 07:04:21;;;;;;;;;;;25.20;50.00;;;;;;4986666;28;19917;-89
2023/07/15 07:06:46;;;;;;;;;;;25.30;49.00;;;;;;4971272;28;19949;-90
2023/07/15 07:09:12;;;;;;;;;;;25.40;48.30;;;;;;4975037;28;19922;-89
2023/07/15 07:11:37;;;;;;;;;;;25.40;50.10;;;;;;4974218;28;19940;-90
2023/07/15 07:14:04;;;;;;;;;;;25.40;49.20;;;;;;4973074;28;19910;-89
2023/07/15 07:16:29;;;;;;;;;;;25.50;48.50;;;;;;4976604;28;19917;-90
2023/07/15 07:18:55;;;;;;;;;;;25.50;48.90;;;;;;4973840;28;19917;-90
2023/07/15 07:21:20;;;;;;;;;;;25.50;49.60;;;;;;4974860;28;19920;-89
2023/07/15 07:23:47;;;;;;;;;;;25.60;49.70;;;;;;4988961;28;20409;-90
2023/07/15 07:26:12;;;;;;;;;;;25.60;49.30;;;;;;4973967;28;19918;-90
2023/07/15 07:28:41;;;;;;;;;;;25.60;49.40;;;;;;4974110;28;20054;-90
2023/07/15 07:31:07;;;;;;;;;;;25.60;48.90;;;;;;4973050;28;20000;-89
2023/07/15 07:33:32;;;;;;;;;;;25.80;48.40;;;;;;4990103;28;20457;-90
2023/07/15 07:35:58;;;;;;;;;;;26.00;47.90;;;;;;4973206;28;20009;-91
2023/07/15 07:38:23;;;;;;;;;;;25.90;48.00;;;;;;4973746;28;20386;-91
2023/07/15 07:40:49;;;;;;;;;;;26.00;48.30;;;;;;5004230;28;19928;-90
2023/07/15 07:43:14;;;;;;;;;;;26.00;47.90;;;;;;4999442;28;19962;-90
2023/07/15 07:45:40;;;;;;;;;;;26.20;48.00;;;;;;4975518;28;19948;-87
2023/07/15 07:48:05;;;;;;;;;;;26.30;48.20;;;;;;4989399;28;20290;-88
2023/07/15 07:50:31;;;;;;;;;;;26.30;47.90;;;;;;4973397;28;19914;-87
2023/07/15 07:52:56;;;;;;;;;;;26.30;48.80;;;;;;4973089;28;19914;-89
2023/07/15 07:55:22;;;;;;;;;;;26.30;48.80;;;;;;4980613;28;20024;-89
2023/07/15 07:57:47;;;;;;;;;;;26.40;48.10;;;;;;4976154;28;19921;-88
2023/07/15 08:00:14;;;;;;;;;;;26.30;48.60;;;;;;4970051;28;20440;-86
2023/07/15 08:02:39;;;;;;;;;;;26.30;48.50;;;;;;4971771;28;19920;-87
2023/07/15 08:05:05;;;;;;;;;;;26.20;48.30;;;;;;4989308;28;19914;-86
2023/07/15 08:07:31;;;;;;;;;;;26.10;49.20;;;;;;4970538;28;19914;-89
2023/07/15 08:09:56;;;;;;;;;;;26.10;48.90;;;;;;4971213;28;19922;-89
2023/07/15 08:12:22;;;;;;;;;;;26.10;49.40;;;;;;4987721;28;20399;-89
2023/07/15 08:14:47;;;;;;;;;;;26.10;48.60;;;;;;4972645;28;20001;-89
2023/07/15 08:17:13;;;;;;;;;;;26.10;48.90;;;;;;4989441;28;19914;-89
2023/07/15 08:19:38;;;;;;;;;;;26.10;49.00;;;;;;4973811;28;20349;-89
2023/07/15 08:22:04;;;;;;;;;;;26.30;49.60;;;;;;4990372;28;19914;-89
2023/07/15 08:24:29;;;;;;;;;;;26.50;49.80;;;;;;4990410;28;19913;-89
2023/07/15 08:27:04;;;;;;;;;;;26.50;48.90;;;;;;4978373;28;19910;-90
2023/07/15 08:29:36;;;;;;;;;;;26.50;49.50;;;;;;4982811;28;19910;-89
2023/07/15 08:32:02;;;;;;;;;;;26.40;50.20;;;;;;4979055;28;20055;-88
2023/07/15 08:34:28;;;;;;;;;;;26.50;49.30;;;;;;4989663;28;20006;-90
2023/07/15 08:36:53;;;;;;;;;;;26.50;49.20;;;;;;4973576;28;19943;-89
2023/07/15 08:39:19;;;;;;;;;;;26.60;49.70;;;;;;4975018;28;19913;-90
2023/07/15 08:41:44;;;;;;;;;;;26.50;49.80;;;;;;4988846;28;19937;-89
2023/07/15 08:44:10;;;;;;;;;;;26.40;50.20;;;;;;4971355;28;19921;-87
2023/07/15 08:46:37;;;;;;;;;;;26.40;49.80;;;;;;4991236;28;19920;-87
2023/07/15 08:49:03;;;;;;;;;;;26.30;51.40;;;;;;4989844;28;19993;-87
2023/07/15 08:51:30;;;;;;;;;;;26.30;51.50;;;;;;4990901;28;19910;-88
2023/07/15 08:53:56;;;;;;;;;;;26.20;50.50;;;;;;4972005;28;19917;-88
2023/07/15 08:56:23;;;;;;;;;;;26.30;51.50;;;;;;4989999;28;19914;-88
2023/07/15 08:58:49;;;;;;;;;;;26.30;52.00;;;;;;4972848;28;19917;-88
2023/07/15 09:01:14;;;;;;;;;;;26.30;51.50;;;;;;4973500;28;20001;-88
2023/07/15 09:03:40;;;;;;;;;;;26.20;51.60;;;;;;4990936;28;19917;-89
2023/07/15 09:06:05;;;;;;;;;;;26.30;51.20;;;;;;4987709;28;19970;-89
2023/07/15 09:08:31;;;;;;;;;;;26.30;50.90;;;;;;5011037;28;19914;-89
2023/07/15 09:10:57;;;;;;;;;;;26.30;50.90;;;;;;4985946;28;19910;-89
2023/07/15 09:13:24;;;;;;;;;;;26.00;50.70;;;;;;4977628;28;19925;-88
2023/07/15 09:15:50;;;;;;;;;;;25.90;51.50;;;;;;4990685;28;19918;-88
2023/07/15 09:18:15;;;;;;;;;;;25.70;53.00;;;;;;4975829;28;19945;-89
2023/07/15 09:20:41;;;;;;;;;;;25.50;53.50;;;;;;4978166;28;19917;-89
2023/07/15 09:23:07;;;;;;;;;;;25.20;54.00;;;;;;4977355;28;19910;-89
2023/07/15 09:25:35;;;;;;;;;;;25.10;59.10;;;;;;4992917;28;20316;-89
2023/07/15 09:28:01;;;;;;;;;;;24.80;63.90;;;;;;4976062;28;20272;-88
2023/07/15 09:30:26;;;;;;;;;;;24.30;67.10;;;;;;4976500;28;19924;-89
2023/07/15 09:32:52;;;;;;;;;;;23.60;70.90;;;;;;4977318;28;20601;-89
2023/07/15 09:35:17;;;;;;;;;;;23.10;74.10;;;;;;4980049;28;20330;-89
2023/07/15 09:37:46;;;;;;;;;;;22.70;76.40;;;;;;4976366;28;19914;-89
2023/07/15 09:40:11;;;;;;;;;;;22.50;77.30;;;;;;4976255;28;19910;-89
2023/07/15 09:42:53;;;;;;;;;;;22.20;78.40;;;;;;4976439;28;19921;-89
2023/07/15 09:45:31;;;;;;;;;;;21.90;79.30;;;;;;4970072;28;19925;-89
2023/07/15 09:47:56;;;;;;;;;;;21.70;81.00;;;;;;4995033;28;20331;-88
2023/07/15 09:50:22;;;;;;;;;;;21.60;81.70;;;;;;4976208;28;20008;-90
2023/07/15 09:52:48;;;;;;;;;;;21.50;82.50;;;;;;4975894;28;20002;-89
2023/07/15 09:55:14;;;;;;;;;;;21.30;83.30;;;;;;4979259;28;19910;-89
2023/07/15 09:57:39;;;;;;;;;;;21.40;83.60;;;;;;5003030;28;19914;-91
2023/07/15 10:00:05;;;;;;;;;;;21.30;83.80;;;;;;4994925;28;19939;-89
2023/07/15 10:02:41;;;;;;;;;;;21.20;83.80;;;;;;4975628;28;19910;-88
2023/07/15 10:05:13;;;;;;;;;;;21.20;85.20;;;;;;4974959;28;19910;-89
2023/07/15 10:07:40;;;;;;;;;;;21.10;84.90;;;;;;4974984;28;19996;-89
2023/07/15 10:10:07;;;;;;;;;;;21.10;85.40;;;;;;4974844;28;19925;-89
2023/07/15 10:12:34;;;;;;;;;;;21.10;85.70;;;;;;4992299;28;19910;-89
2023/07/15 10:15:00;;;;;;;;;;;21.10;85.60;;;;;;4990552;28;19937;-88
2023/07/15 10:17:32;;;;;;;;;;;21.20;85.40;;;;;;4974024;28;19984;-89
2023/07/15 10:20:10;;;;;;;;;;;21.10;85.40;;;;;;4974720;28;19910;-89
2023/07/15 10:22:36;;;;;;;;;;;21.10;85.50;;;;;;4975075;28;20013;-89
2023/07/15 10:25:03;;;;;;;;;;;21.10;85.60;;;;;;4991432;28;19964;-88
2023/07/15 10:27:29;;;;;;;;;;;21.10;85.40;;;;;;4973612;28;20438;-88
2023/07/15 10:30:14;;;;;;;;;;;21.30;85.20;;;;;;4991511;28;20439;-88
2023/07/15 10:33:03;;;;;;;;;;;21.50;84.20;;;;;;4974853;28;19910;-88
2023/07/15 10:35:33;;;;;;;;;;;21.60;83.90;;;;;;4974709;28;19933;-88
2023/07/15 10:38:01;;;;;;;;;;;21.70;83.80;;;;;;4991049;28;19956;-89
2023/07/15 10:40:45;;;;;;;;;;;21.80;83.80;;;;;;4991781;28;19911;-89
2023/07/15 10:43:10;;;;;;;;;;;21.90;83.50;;;;;;4989937;28;19944;-88
2023/07/15 10:45:56;;;;;;;;;;;22.00;83.20;;;;;;4974484;28;19910;-88
2023/07/15 10:48:22;;;;;;;;;;;22.10;83.40;;;;;;4985340;28;19914;-88
2023/07/15 10:50:48;;;;;;;;;;;22.10;81.70;;;;;;4970544;28;19922;-89
2023/07/15 10:53:25;;;;;;;;;;;22.00;83.30;;;;;;4974198;28;19967;-89
2023/07/15 10:55:58;;;;;;;;;;;22.10;84.10;;;;;;4991959;28;20008;-89
2023/07/15 10:58:24;;;;;;;;;;;22.30;83.80;;;;;;4973421;28;19925;-89
2023/07/15 11:00:50;;;;;;;;;;;22.50;82.60;;;;;;4992185;28;19917;-88
2023/07/15 11:03:16;;;;;;;;;;;22.60;82.30;;;;;;4974616;28;19914;-88
2023/07/15 11:05:45;;;;;;;;;;;22.70;82.70;;;;;;4974405;28;20386;-88
2023/07/15 11:08:10;;;;;;;;;;;22.80;83.20;;;;;;4974381;28;20393;-88
2023/07/15 11:10:36;;;;;;;;;;;23.00;81.90;;;;;;4974775;28;19959;-88
2023/07/15 11:13:19;;;;;;;;;;;22.90;80.70;;;;;;4973334;28;19995;-88
2023/07/15 11:15:45;;;;;;;;;;;23.10;81.00;;;;;;4971389;28;19922;-88
2023/07/15 11:18:15;;;;;;;;;;;23.30;80.80;;;;;;4973253;28;19922;-88
2023/07/15 11:20:41;;;;;;;;;;;23.30;79.70;;;;;;4977846;28;19967;-89
2023/07/15 11:23:06;;;;;;;;;;;23.30;80.30;;;;;;4991289;28;19921;-88
2023/07/15 11:25:32;;;;;;;;;;;23.30;80.00;;;;;;4978192;28;19949;-88
2023/07/15 11:27:58;;;;;;;;;;;23.20;80.00;;;;;;4990006;28;19921;-88
2023/07/15 11:30:24;;;;;;;;;;;23.20;79.50;;;;;;4973726;28;19913;-88
2023/07/15 11:32:54;;;;;;;;;;;23.30;78.70;;;;;;4972381;28;19917;-88
2023/07/15 11:35:21;;;;;;;;;;;23.30;80.20;;;;;;4974333;28;19936;-88
2023/07/15 11:37:47;;;;;;;;;;;23.40;81.00;;;;;;4987959;28;20245;-89
2023/07/15 11:40:16;;;;;;;;;;;23.60;80.50;;;;;;4971106;28;19921;-88
2023/07/15 11:42:44;;;;;;;;;;;24.00;80.30;;;;;;4971944;28;19957;-88
2023/07/15 11:45:10;;;;;;;;;;;24.00;81.20;;;;;;4972938;28;20393;-88
2023/07/15 11:47:35;;;;;;;;;;;24.10;80.30;;;;;;4989949;28;19914;-88
2023/07/15 11:50:02;;;;;;;;;;;24.10;80.20;;;;;;4974130;28;19911;-88
2023/07/15 11:52:27;;;;;;;;;;;24.00;78.30;;;;;;4973795;28;19956;-88
2023/07/15 11:54:53;;;;;;;;;;;24.10;76.80;;;;;;4974882;28;19967;-88
2023/07/15 11:57:26;;;;;;;;;;;24.10;76.80;;;;;;4991825;28;20020;-88
2023/07/15 11:59:51;;;;;;;;;;;24.20;76.70;;;;;;4974164;28;19964;-87
2023/07/15 12:02:17;;;;;;;;;;;24.10;76.00;;;;;;4980177;28;19914;-88
2023/07/15 12:04:42;;;;;;;;;;;24.30;76.20;;;;;;4995715;28;19960;-88
2023/07/15 12:07:08;;;;;;;;;;;24.50;75.70;;;;;;5006506;28;19922;-88
2023/07/15 12:09:33;;;;;;;;;;;24.50;75.20;;;;;;4993275;28;19913;-88
2023/07/15 12:11:59;;;;;;;;;;;24.70;74.60;;;;;;4995854;28;19914;-88
2023/07/15 12:14:25;;;;;;;;;;;24.80;75.50;;;;;;4976681;28;19910;-87
2023/07/15 12:16:53;;;;;;;;;;;25.00;74.20;;;;;;4972285;28;19929;-88
2023/07/15 12:19:19;;;;;;;;;;;25.00;73.00;;;;;;4973171;28;19920;-88
2023/07/15 12:21:45;;;;;;;;;;;25.00;72.90;;;;;;4971122;28;20011;-87
2023/07/15 12:24:10;;;;;;;;;;;25.10;73.70;;;;;;4986045;28;20059;-88
2023/07/15 12:26:36;;;;;;;;;;;25.10;73.00;;;;;;4972426;28;20290;-88
2023/07/15 12:29:01;;;;;;;;;;;25.10;72.90;;;;;;4972925;28;19913;-88
2023/07/15 12:31:28;;;;;;;;;;;25.20;72.70;;;;;;4973662;28;19924;-87
2023/07/15 12:33:54;;;;;;;;;;;25.30;71.80;;;;;;4972686;28;19918;-88
2023/07/15 12:36:19;;;;;;;;;;;25.40;71.70;;;;;;4972829;28;19967;-88
2023/07/15 12:38:45;;;;;;;;;;;25.50;72.60;;;;;;4973711;28;19925;-88
2023/07/15 12:41:11;;;;;;;;;;;25.40;70.90;;;;;;4970676;28;19914;-88
2023/07/15 12:43:38;;;;;;;;;;;25.20;72.00;;;;;;4972501;28;20497;-88
2023/07/15 12:46:03;;;;;;;;;;;25.00;72.40;;;;;;4973240;28;19917;-87
2023/07/15 12:48:29;;;;;;;;;;;24.80;73.70;;;;;;4955415;28;20401;-88
2023/07/15 12:50:55;;;;;;;;;;;24.60;74.30;;;;;;4970656;28;19910;-87
2023/07/15 12:53:21;;;;;;;;;;;24.50;74.00;;;;;;4970061;28;19922;-85
2023/07/15 12:55:46;;;;;;;;;;;24.40;74.90;;;;;;4965130;28;19928;-87
2023/07/15 12:58:12;;;;;;;;;;;24.40;75.00;;;;;;4964201;28;19921;-87
2023/07/15 13:00:38;;;;;;;;;;;24.30;75.00;;;;;;4968411;28;19914;-89
2023/07/15 13:03:03;;;;;;;;;;;24.20;75.00;;;;;;4963415;28;19921;-86
2023/07/15 13:05:29;;;;;;;;;;;24.30;74.40;;;;;;4961863;28;19922;-87
2023/07/15 13:07:54;;;;;;;;;;;24.30;74.40;;;;;;4960002;28;19918;-88
2023/07/15 13:10:20;;;;;;;;;;;24.20;74.20;;;;;;4970425;28;19914;-88
2023/07/15 13:12:46;;;;;;;;;;;24.40;73.70;;;;;;4976276;28;19957;-89
2023/07/15 13:15:11;;;;;;;;;;;24.70;73.20;;;;;;4971960;28;20378;-88
2023/07/15 13:17:40;;;;;;;;;;;24.90;72.70;;;;;;4987866;28;19918;-89
2023/07/15 13:20:09;;;;;;;;;;;25.10;72.70;;;;;;4970955;28;20087;-89
2023/07/15 13:22:35;;;;;;;;;;;25.00;72.70;;;;;;4973586;28;19956;-89
2023/07/15 13:25:00;;;;;;;;;;;25.00;72.80;;;;;;4975025;28;20346;-89
2023/07/15 13:27:26;;;;;;;;;;;24.90;72.80;;;;;;4988004;28;20000;-89
2023/07/15 13:29:51;;;;;;;;;;;24.90;73.10;;;;;;4983202;28;19937;-89
2023/07/15 13:32:17;;;;;;;;;;;24.80;72.80;;;;;;4992121;28;19939;-91
2023/07/15 13:34:42;;;;;;;;;;;24.70;74.00;;;;;;4989272;28;20460;-89
2023/07/15 13:37:07;;;;;;;;;;;24.90;73.80;;;;;;4964727;28;19918;-90
2023/07/15 13:39:37;;;;;;;;;;;25.10;71.90;;;;;;4964134;28;19965;-89
2023/07/15 13:42:04;;;;;;;;;;;25.10;72.40;;;;;;4978139;28;19922;-90
2023/07/15 13:44:31;;;;;;;;;;;25.20;71.80;;;;;;4963626;28;19914;-89
2023/07/15 13:46:56;;;;;;;;;;;25.30;70.60;;;;;;4973948;28;19914;-90
2023/07/15 13:49:21;;;;;;;;;;;25.20;70.90;;;;;;4969963;28;19924;-89
2023/07/15 13:51:47;;;;;;;;;;;25.10;71.20;;;;;;4969578;28;19943;-89
2023/07/15 13:54:13;;;;;;;;;;;25.00;71.60;;;;;;4970021;28;19960;-89
2023/07/15 13:56:38;;;;;;;;;;;25.10;71.40;;;;;;4968561;28;19922;-89
2023/07/15 13:59:04;;;;;;;;;;;25.10;71.60;;;;;;4965873;28;19914;-91
2023/07/15 14:01:32;;;;;;;;;;;25.10;71.60;;;;;;4968356;28;19921;-91
2023/07/15 14:03:58;;;;;;;;;;;25.20;71.50;;;;;;4975867;28;19961;-90
2023/07/15 14:06:23;;;;;;;;;;;25.50;70.90;;;;;;4972353;28;19976;-91
2023/07/15 14:08:49;;;;;;;;;;;25.60;70.30;;;;;;4994508;28;19914;-90
2023/07/15 14:11:14;;;;;;;;;;;25.60;70.10;;;;;;4983889;28;20377;-90